<?xml version="1.0" encoding="UTF-8" standalone="no" ?>
<gpx xmlns="http://www.topografix.com/GPX/1/1" xmlns:xsi="http://www.w3.org/2001/XMLSchema-instance" xsi:schemaLocation="http://www.topografix.com/GPX/1/1 http://www.topografix.com/GPX/1/1/gpx.xsd" version="1.1" creator="VisuGPX - https://www.visugpx.com">
  <metadata>
    <name>CO sprint Balcons de Villards</name>
    <desc><![CDATA[Dans la stationde ski de Villars de Lans, premiere manche de la Certaco et qualification régionale]]></desc>
  </metadata>
  <trk>
    <name><![CDATA[co sprint villard de lans]]></name>
    <trkseg>
      <trkpt lat="45.05139" lon="5.56044">
        <ele>1221</ele>
        <time>2012-07-07T14:11:38.000Z</time>
      </trkpt>
      <trkpt lat="45.05144" lon="5.56056">
        <ele>1222.4000244141</ele>
        <time>2012-07-07T14:11:42.000Z</time>
      </trkpt>
      <trkpt lat="45.05156" lon="5.56093">
        <ele>1223.4000244141</ele>
        <time>2012-07-07T14:11:48.000Z</time>
      </trkpt>
      <trkpt lat="45.05159" lon="5.56107">
        <ele>1222.8000488281</ele>
        <time>2012-07-07T14:11:50.000Z</time>
      </trkpt>
      <trkpt lat="45.05166" lon="5.56132">
        <ele>1223.8000488281</ele>
        <time>2012-07-07T14:11:54.000Z</time>
      </trkpt>
      <trkpt lat="45.05169" lon="5.5615">
        <ele>1224.1999511719</ele>
        <time>2012-07-07T14:11:57.000Z</time>
      </trkpt>
      <trkpt lat="45.05169" lon="5.56163">
        <ele>1224.1999511719</ele>
        <time>2012-07-07T14:11:59.000Z</time>
      </trkpt>
      <trkpt lat="45.05168" lon="5.56194">
        <ele>1223.8000488281</ele>
        <time>2012-07-07T14:12:04.000Z</time>
      </trkpt>
      <trkpt lat="45.05169" lon="5.5621">
        <ele>1223.4000244141</ele>
        <time>2012-07-07T14:12:07.000Z</time>
      </trkpt>
      <trkpt lat="45.05173" lon="5.56232">
        <ele>1223.4000244141</ele>
        <time>2012-07-07T14:12:11.000Z</time>
      </trkpt>
      <trkpt lat="45.05157" lon="5.56247">
        <ele>1227.5999755859</ele>
        <time>2012-07-07T14:12:15.000Z</time>
      </trkpt>
      <trkpt lat="45.05156" lon="5.56257">
        <ele>1226.5999755859</ele>
        <time>2012-07-07T14:12:17.000Z</time>
      </trkpt>
      <trkpt lat="45.05152" lon="5.56275">
        <ele>1225.1999511719</ele>
        <time>2012-07-07T14:12:22.000Z</time>
      </trkpt>
      <trkpt lat="45.05149" lon="5.56282">
        <ele>1225.8000488281</ele>
        <time>2012-07-07T14:12:25.000Z</time>
      </trkpt>
      <trkpt lat="45.05146" lon="5.56291">
        <ele>1225.1999511719</ele>
        <time>2012-07-07T14:12:28.000Z</time>
      </trkpt>
      <trkpt lat="45.05139" lon="5.56316">
        <ele>1224.1999511719</ele>
        <time>2012-07-07T14:12:32.000Z</time>
      </trkpt>
      <trkpt lat="45.05131" lon="5.5634">
        <ele>1221.4000244141</ele>
        <time>2012-07-07T14:12:36.000Z</time>
      </trkpt>
      <trkpt lat="45.05117" lon="5.56374">
        <ele>1219.4000244141</ele>
        <time>2012-07-07T14:12:42.000Z</time>
      </trkpt>
      <trkpt lat="45.05107" lon="5.56389">
        <ele>1217.5999755859</ele>
        <time>2012-07-07T14:12:45.000Z</time>
      </trkpt>
      <trkpt lat="45.05093" lon="5.56409">
        <ele>1218.5999755859</ele>
        <time>2012-07-07T14:12:50.000Z</time>
      </trkpt>
      <trkpt lat="45.0508" lon="5.56429">
        <ele>1218.5999755859</ele>
        <time>2012-07-07T14:12:55.000Z</time>
      </trkpt>
      <trkpt lat="45.05075" lon="5.56442">
        <ele>1218</ele>
        <time>2012-07-07T14:12:58.000Z</time>
      </trkpt>
      <trkpt lat="45.05074" lon="5.56446">
        <ele>1218</ele>
        <time>2012-07-07T14:12:59.000Z</time>
      </trkpt>
      <trkpt lat="45.05072" lon="5.56466">
        <ele>1219</ele>
        <time>2012-07-07T14:13:04.000Z</time>
      </trkpt>
      <trkpt lat="45.05073" lon="5.56469">
        <ele>1218.5999755859</ele>
        <time>2012-07-07T14:13:05.000Z</time>
      </trkpt>
      <trkpt lat="45.05087" lon="5.56473">
        <ele>1221.4000244141</ele>
        <time>2012-07-07T14:13:10.000Z</time>
      </trkpt>
      <trkpt lat="45.05086" lon="5.56473">
        <ele>1221.8000488281</ele>
        <time>2012-07-07T14:13:14.000Z</time>
      </trkpt>
      <trkpt lat="45.05077" lon="5.56466">
        <ele>1220</ele>
        <time>2012-07-07T14:13:16.000Z</time>
      </trkpt>
      <trkpt lat="45.05055" lon="5.56458">
        <ele>1219.4000244141</ele>
        <time>2012-07-07T14:13:21.000Z</time>
      </trkpt>
      <trkpt lat="45.05037" lon="5.5646">
        <ele>1219.4000244141</ele>
        <time>2012-07-07T14:13:25.000Z</time>
      </trkpt>
      <trkpt lat="45.05014" lon="5.5646">
        <ele>1220.4000244141</ele>
        <time>2012-07-07T14:13:30.000Z</time>
      </trkpt>
      <trkpt lat="45.04995" lon="5.56453">
        <ele>1221.4000244141</ele>
        <time>2012-07-07T14:13:35.000Z</time>
      </trkpt>
      <trkpt lat="45.04995" lon="5.56452">
        <ele>1219.4000244141</ele>
        <time>2012-07-07T14:13:37.000Z</time>
      </trkpt>
      <trkpt lat="45.04994" lon="5.5645">
        <ele>1218</ele>
        <time>2012-07-07T14:13:41.000Z</time>
      </trkpt>
      <trkpt lat="45.04984" lon="5.56463">
        <ele>1219.4000244141</ele>
        <time>2012-07-07T14:13:46.000Z</time>
      </trkpt>
      <trkpt lat="45.04981" lon="5.56465">
        <ele>1220.4000244141</ele>
        <time>2012-07-07T14:13:47.000Z</time>
      </trkpt>
      <trkpt lat="45.04981" lon="5.56481">
        <ele>1222.4000244141</ele>
        <time>2012-07-07T14:13:52.000Z</time>
      </trkpt>
      <trkpt lat="45.04992" lon="5.56491">
        <ele>1223.4000244141</ele>
        <time>2012-07-07T14:13:56.000Z</time>
      </trkpt>
      <trkpt lat="45.05002" lon="5.56496">
        <ele>1223.8000488281</ele>
        <time>2012-07-07T14:13:59.000Z</time>
      </trkpt>
      <trkpt lat="45.0501" lon="5.56503">
        <ele>1224.1999511719</ele>
        <time>2012-07-07T14:14:02.000Z</time>
      </trkpt>
      <trkpt lat="45.05011" lon="5.5651">
        <ele>1226.1999511719</ele>
        <time>2012-07-07T14:14:04.000Z</time>
      </trkpt>
      <trkpt lat="45.05014" lon="5.56522">
        <ele>1228.5999755859</ele>
        <time>2012-07-07T14:14:07.000Z</time>
      </trkpt>
      <trkpt lat="45.05016" lon="5.56533">
        <ele>1232.4000244141</ele>
        <time>2012-07-07T14:14:12.000Z</time>
      </trkpt>
      <trkpt lat="45.05021" lon="5.56541">
        <ele>1233.8000488281</ele>
        <time>2012-07-07T14:14:15.000Z</time>
      </trkpt>
      <trkpt lat="45.05035" lon="5.56553">
        <ele>1235.4000244141</ele>
        <time>2012-07-07T14:14:20.000Z</time>
      </trkpt>
      <trkpt lat="45.05049" lon="5.56558">
        <ele>1233.8000488281</ele>
        <time>2012-07-07T14:14:23.000Z</time>
      </trkpt>
      <trkpt lat="45.05052" lon="5.56559">
        <ele>1233</ele>
        <time>2012-07-07T14:14:24.000Z</time>
      </trkpt>
      <trkpt lat="45.05051" lon="5.56565">
        <ele>1231.4000244141</ele>
        <time>2012-07-07T14:14:27.000Z</time>
      </trkpt>
      <trkpt lat="45.05047" lon="5.56573">
        <ele>1233.8000488281</ele>
        <time>2012-07-07T14:14:30.000Z</time>
      </trkpt>
      <trkpt lat="45.05039" lon="5.56584">
        <ele>1237.8000488281</ele>
        <time>2012-07-07T14:14:35.000Z</time>
      </trkpt>
      <trkpt lat="45.05035" lon="5.56597">
        <ele>1241.5999755859</ele>
        <time>2012-07-07T14:14:40.000Z</time>
      </trkpt>
      <trkpt lat="45.05032" lon="5.56612">
        <ele>1244</ele>
        <time>2012-07-07T14:14:46.000Z</time>
      </trkpt>
      <trkpt lat="45.05025" lon="5.56622">
        <ele>1248.4000244141</ele>
        <time>2012-07-07T14:14:51.000Z</time>
      </trkpt>
      <trkpt lat="45.05023" lon="5.56625">
        <ele>1249.1999511719</ele>
        <time>2012-07-07T14:14:52.000Z</time>
      </trkpt>
      <trkpt lat="45.05017" lon="5.56633">
        <ele>1251.5999755859</ele>
        <time>2012-07-07T14:14:57.000Z</time>
      </trkpt>
      <trkpt lat="45.05014" lon="5.56636">
        <ele>1252.1999511719</ele>
        <time>2012-07-07T14:15:03.000Z</time>
      </trkpt>
      <trkpt lat="45.05009" lon="5.56643">
        <ele>1256.4000244141</ele>
        <time>2012-07-07T14:15:09.000Z</time>
      </trkpt>
      <trkpt lat="45.05006" lon="5.56654">
        <ele>1255.5999755859</ele>
        <time>2012-07-07T14:15:14.000Z</time>
      </trkpt>
      <trkpt lat="45.05006" lon="5.5667">
        <ele>1255</ele>
        <time>2012-07-07T14:15:19.000Z</time>
      </trkpt>
      <trkpt lat="45.05004" lon="5.56681">
        <ele>1255</ele>
        <time>2012-07-07T14:15:23.000Z</time>
      </trkpt>
      <trkpt lat="45.05" lon="5.567">
        <ele>1257.4000244141</ele>
        <time>2012-07-07T14:15:30.000Z</time>
      </trkpt>
      <trkpt lat="45.05001" lon="5.56718">
        <ele>1258.8000488281</ele>
        <time>2012-07-07T14:15:35.000Z</time>
      </trkpt>
      <trkpt lat="45.05001" lon="5.56722">
        <ele>1259.8000488281</ele>
        <time>2012-07-07T14:15:37.000Z</time>
      </trkpt>
      <trkpt lat="45.05004" lon="5.56737">
        <ele>1263.5999755859</ele>
        <time>2012-07-07T14:15:43.000Z</time>
      </trkpt>
      <trkpt lat="45.05001" lon="5.56741">
        <ele>1263.5999755859</ele>
        <time>2012-07-07T14:15:46.000Z</time>
      </trkpt>
      <trkpt lat="45.04993" lon="5.56743">
        <ele>1265.1999511719</ele>
        <time>2012-07-07T14:15:51.000Z</time>
      </trkpt>
      <trkpt lat="45.04985" lon="5.56736">
        <ele>1265.1999511719</ele>
        <time>2012-07-07T14:15:55.000Z</time>
      </trkpt>
      <trkpt lat="45.04983" lon="5.56732">
        <ele>1266</ele>
        <time>2012-07-07T14:15:56.000Z</time>
      </trkpt>
      <trkpt lat="45.04975" lon="5.56711">
        <ele>1264.5999755859</ele>
        <time>2012-07-07T14:16:01.000Z</time>
      </trkpt>
      <trkpt lat="45.04975" lon="5.56706">
        <ele>1264.5999755859</ele>
        <time>2012-07-07T14:16:02.000Z</time>
      </trkpt>
      <trkpt lat="45.04968" lon="5.56693">
        <ele>1263.5999755859</ele>
        <time>2012-07-07T14:16:06.000Z</time>
      </trkpt>
      <trkpt lat="45.04966" lon="5.56683">
        <ele>1263.1999511719</ele>
        <time>2012-07-07T14:16:09.000Z</time>
      </trkpt>
      <trkpt lat="45.0496" lon="5.56675">
        <ele>1262.1999511719</ele>
        <time>2012-07-07T14:16:12.000Z</time>
      </trkpt>
      <trkpt lat="45.04956" lon="5.56659">
        <ele>1261.1999511719</ele>
        <time>2012-07-07T14:16:16.000Z</time>
      </trkpt>
      <trkpt lat="45.04955" lon="5.56654">
        <ele>1260.8000488281</ele>
        <time>2012-07-07T14:16:17.000Z</time>
      </trkpt>
      <trkpt lat="45.04949" lon="5.56631">
        <ele>1258.8000488281</ele>
        <time>2012-07-07T14:16:22.000Z</time>
      </trkpt>
      <trkpt lat="45.04943" lon="5.56611">
        <ele>1256.4000244141</ele>
        <time>2012-07-07T14:16:26.000Z</time>
      </trkpt>
      <trkpt lat="45.04939" lon="5.56591">
        <ele>1253.5999755859</ele>
        <time>2012-07-07T14:16:30.000Z</time>
      </trkpt>
      <trkpt lat="45.04938" lon="5.56589">
        <ele>1252.5999755859</ele>
        <time>2012-07-07T14:16:31.000Z</time>
      </trkpt>
      <trkpt lat="45.04923" lon="5.56592">
        <ele>1251.5999755859</ele>
        <time>2012-07-07T14:16:36.000Z</time>
      </trkpt>
      <trkpt lat="45.04921" lon="5.56591">
        <ele>1251.5999755859</ele>
        <time>2012-07-07T14:16:37.000Z</time>
      </trkpt>
      <trkpt lat="45.04902" lon="5.56585">
        <ele>1247.4000244141</ele>
        <time>2012-07-07T14:16:43.000Z</time>
      </trkpt>
      <trkpt lat="45.04889" lon="5.56572">
        <ele>1244.4000244141</ele>
        <time>2012-07-07T14:16:48.000Z</time>
      </trkpt>
      <trkpt lat="45.04873" lon="5.5656">
        <ele>1242.5999755859</ele>
        <time>2012-07-07T14:16:54.000Z</time>
      </trkpt>
      <trkpt lat="45.04867" lon="5.56555">
        <ele>1241</ele>
        <time>2012-07-07T14:16:57.000Z</time>
      </trkpt>
      <trkpt lat="45.0486" lon="5.56549">
        <ele>1242</ele>
        <time>2012-07-07T14:17:01.000Z</time>
      </trkpt>
      <trkpt lat="45.04856" lon="5.56544">
        <ele>1243</ele>
        <time>2012-07-07T14:17:05.000Z</time>
      </trkpt>
      <trkpt lat="45.04856" lon="5.56532">
        <ele>1242.5999755859</ele>
        <time>2012-07-07T14:17:12.000Z</time>
      </trkpt>
      <trkpt lat="45.04855" lon="5.56531">
        <ele>1244</ele>
        <time>2012-07-07T14:17:13.000Z</time>
      </trkpt>
      <trkpt lat="45.04854" lon="5.56524">
        <ele>1247.4000244141</ele>
        <time>2012-07-07T14:17:18.000Z</time>
      </trkpt>
      <trkpt lat="45.04853" lon="5.56524">
        <ele>1248.4000244141</ele>
        <time>2012-07-07T14:17:19.000Z</time>
      </trkpt>
      <trkpt lat="45.04846" lon="5.56526">
        <ele>1248.4000244141</ele>
        <time>2012-07-07T14:17:24.000Z</time>
      </trkpt>
      <trkpt lat="45.04844" lon="5.56533">
        <ele>1253.1999511719</ele>
        <time>2012-07-07T14:17:32.000Z</time>
      </trkpt>
      <trkpt lat="45.0484" lon="5.56535">
        <ele>1253.1999511719</ele>
        <time>2012-07-07T14:17:36.000Z</time>
      </trkpt>
      <trkpt lat="45.04837" lon="5.56535">
        <ele>1252.1999511719</ele>
        <time>2012-07-07T14:17:38.000Z</time>
      </trkpt>
      <trkpt lat="45.04835" lon="5.56536">
        <ele>1253.5999755859</ele>
        <time>2012-07-07T14:17:40.000Z</time>
      </trkpt>
      <trkpt lat="45.04828" lon="5.56534">
        <ele>1254</ele>
        <time>2012-07-07T14:17:45.000Z</time>
      </trkpt>
      <trkpt lat="45.04827" lon="5.56522">
        <ele>1254</ele>
        <time>2012-07-07T14:17:48.000Z</time>
      </trkpt>
      <trkpt lat="45.04825" lon="5.56506">
        <ele>1251.5999755859</ele>
        <time>2012-07-07T14:17:53.000Z</time>
      </trkpt>
      <trkpt lat="45.04825" lon="5.56504">
        <ele>1248.8000488281</ele>
        <time>2012-07-07T14:17:56.000Z</time>
      </trkpt>
      <trkpt lat="45.04829" lon="5.56474">
        <ele>1244.4000244141</ele>
        <time>2012-07-07T14:18:02.000Z</time>
      </trkpt>
      <trkpt lat="45.04832" lon="5.56459">
        <ele>1241.5999755859</ele>
        <time>2012-07-07T14:18:05.000Z</time>
      </trkpt>
      <trkpt lat="45.04835" lon="5.56441">
        <ele>1239.1999511719</ele>
        <time>2012-07-07T14:18:08.000Z</time>
      </trkpt>
      <trkpt lat="45.04843" lon="5.5642">
        <ele>1233</ele>
        <time>2012-07-07T14:18:13.000Z</time>
      </trkpt>
      <trkpt lat="45.0485" lon="5.56405">
        <ele>1229.5999755859</ele>
        <time>2012-07-07T14:18:17.000Z</time>
      </trkpt>
      <trkpt lat="45.04863" lon="5.56398">
        <ele>1227.5999755859</ele>
        <time>2012-07-07T14:18:21.000Z</time>
      </trkpt>
      <trkpt lat="45.04872" lon="5.5639">
        <ele>1226.5999755859</ele>
        <time>2012-07-07T14:18:24.000Z</time>
      </trkpt>
      <trkpt lat="45.04873" lon="5.5638">
        <ele>1227.1999511719</ele>
        <time>2012-07-07T14:18:28.000Z</time>
      </trkpt>
      <trkpt lat="45.0487" lon="5.56375">
        <ele>1227.1999511719</ele>
        <time>2012-07-07T14:18:33.000Z</time>
      </trkpt>
      <trkpt lat="45.0487" lon="5.56374">
        <ele>1227.1999511719</ele>
        <time>2012-07-07T14:18:34.000Z</time>
      </trkpt>
      <trkpt lat="45.04871" lon="5.56369">
        <ele>1226.1999511719</ele>
        <time>2012-07-07T14:18:39.000Z</time>
      </trkpt>
      <trkpt lat="45.0487" lon="5.56365">
        <ele>1224.1999511719</ele>
        <time>2012-07-07T14:18:42.000Z</time>
      </trkpt>
      <trkpt lat="45.04862" lon="5.56354">
        <ele>1218</ele>
        <time>2012-07-07T14:18:47.000Z</time>
      </trkpt>
      <trkpt lat="45.04863" lon="5.56347">
        <ele>1216.1999511719</ele>
        <time>2012-07-07T14:18:51.000Z</time>
      </trkpt>
      <trkpt lat="45.04863" lon="5.56346">
        <ele>1217</ele>
        <time>2012-07-07T14:18:52.000Z</time>
      </trkpt>
      <trkpt lat="45.0486" lon="5.56339">
        <ele>1215.1999511719</ele>
        <time>2012-07-07T14:18:56.000Z</time>
      </trkpt>
      <trkpt lat="45.04865" lon="5.56325">
        <ele>1215.5999755859</ele>
        <time>2012-07-07T14:19:00.000Z</time>
      </trkpt>
      <trkpt lat="45.04879" lon="5.56321">
        <ele>1215.5999755859</ele>
        <time>2012-07-07T14:19:04.000Z</time>
      </trkpt>
      <trkpt lat="45.04896" lon="5.56317">
        <ele>1215.5999755859</ele>
        <time>2012-07-07T14:19:08.000Z</time>
      </trkpt>
      <trkpt lat="45.04903" lon="5.56315">
        <ele>1213.8000488281</ele>
        <time>2012-07-07T14:19:10.000Z</time>
      </trkpt>
      <trkpt lat="45.04914" lon="5.56322">
        <ele>1210.4000244141</ele>
        <time>2012-07-07T14:19:13.000Z</time>
      </trkpt>
      <trkpt lat="45.04919" lon="5.56337">
        <ele>1208.4000244141</ele>
        <time>2012-07-07T14:19:17.000Z</time>
      </trkpt>
      <trkpt lat="45.04924" lon="5.56343">
        <ele>1207.4000244141</ele>
        <time>2012-07-07T14:19:19.000Z</time>
      </trkpt>
      <trkpt lat="45.04936" lon="5.56355">
        <ele>1207.4000244141</ele>
        <time>2012-07-07T14:19:24.000Z</time>
      </trkpt>
      <trkpt lat="45.04946" lon="5.5636">
        <ele>1207</ele>
        <time>2012-07-07T14:19:28.000Z</time>
      </trkpt>
      <trkpt lat="45.04953" lon="5.5637">
        <ele>1209.4000244141</ele>
        <time>2012-07-07T14:19:32.000Z</time>
      </trkpt>
      <trkpt lat="45.04962" lon="5.56384">
        <ele>1212.1999511719</ele>
        <time>2012-07-07T14:19:37.000Z</time>
      </trkpt>
      <trkpt lat="45.04974" lon="5.56392">
        <ele>1213.1999511719</ele>
        <time>2012-07-07T14:19:41.000Z</time>
      </trkpt>
      <trkpt lat="45.04975" lon="5.56393">
        <ele>1214.1999511719</ele>
        <time>2012-07-07T14:19:43.000Z</time>
      </trkpt>
      <trkpt lat="45.04978" lon="5.56383">
        <ele>1214.5999755859</ele>
        <time>2012-07-07T14:19:48.000Z</time>
      </trkpt>
      <trkpt lat="45.04985" lon="5.56376">
        <ele>1214.5999755859</ele>
        <time>2012-07-07T14:19:52.000Z</time>
      </trkpt>
      <trkpt lat="45.04995" lon="5.56353">
        <ele>1215.1999511719</ele>
        <time>2012-07-07T14:19:56.000Z</time>
      </trkpt>
      <trkpt lat="45.05007" lon="5.5633">
        <ele>1215.1999511719</ele>
        <time>2012-07-07T14:20:01.000Z</time>
      </trkpt>
      <trkpt lat="45.05019" lon="5.56321">
        <ele>1213.8000488281</ele>
        <time>2012-07-07T14:20:05.000Z</time>
      </trkpt>
      <trkpt lat="45.0502" lon="5.56321">
        <ele>1214.1999511719</ele>
        <time>2012-07-07T14:20:06.000Z</time>
      </trkpt>
      <trkpt lat="45.05022" lon="5.56304">
        <ele>1212.1999511719</ele>
        <time>2012-07-07T14:20:11.000Z</time>
      </trkpt>
      <trkpt lat="45.05029" lon="5.56283">
        <ele>1209.4000244141</ele>
        <time>2012-07-07T14:20:15.000Z</time>
      </trkpt>
      <trkpt lat="45.0503" lon="5.56278">
        <ele>1208</ele>
        <time>2012-07-07T14:20:16.000Z</time>
      </trkpt>
      <trkpt lat="45.05032" lon="5.56252">
        <ele>1205.5999755859</ele>
        <time>2012-07-07T14:20:20.000Z</time>
      </trkpt>
      <trkpt lat="45.05034" lon="5.56225">
        <ele>1203.5999755859</ele>
        <time>2012-07-07T14:20:24.000Z</time>
      </trkpt>
      <trkpt lat="45.05034" lon="5.56204">
        <ele>1200.8000488281</ele>
        <time>2012-07-07T14:20:27.000Z</time>
      </trkpt>
      <trkpt lat="45.05028" lon="5.56176">
        <ele>1196.8000488281</ele>
        <time>2012-07-07T14:20:32.000Z</time>
      </trkpt>
      <trkpt lat="45.05017" lon="5.56161">
        <ele>1196.4000244141</ele>
        <time>2012-07-07T14:20:36.000Z</time>
      </trkpt>
      <trkpt lat="45.05015" lon="5.56156">
        <ele>1194.4000244141</ele>
        <time>2012-07-07T14:20:38.000Z</time>
      </trkpt>
      <trkpt lat="45.05016" lon="5.56136">
        <ele>1191.1999511719</ele>
        <time>2012-07-07T14:20:44.000Z</time>
      </trkpt>
      <trkpt lat="45.05012" lon="5.56132">
        <ele>1190.5999755859</ele>
        <time>2012-07-07T14:20:48.000Z</time>
      </trkpt>
      <trkpt lat="45.05007" lon="5.56129">
        <ele>1194</ele>
        <time>2012-07-07T14:20:53.000Z</time>
      </trkpt>
      <trkpt lat="45.05008" lon="5.56126">
        <ele>1194.4000244141</ele>
        <time>2012-07-07T14:20:55.000Z</time>
      </trkpt>
      <trkpt lat="45.05008" lon="5.56117">
        <ele>1197.8000488281</ele>
        <time>2012-07-07T14:21:00.000Z</time>
      </trkpt>
      <trkpt lat="45.05009" lon="5.56111">
        <ele>1198.8000488281</ele>
        <time>2012-07-07T14:21:04.000Z</time>
      </trkpt>
      <trkpt lat="45.05005" lon="5.56107">
        <ele>1203.1999511719</ele>
        <time>2012-07-07T14:21:09.000Z</time>
      </trkpt>
      <trkpt lat="45.04999" lon="5.56103">
        <ele>1203.1999511719</ele>
        <time>2012-07-07T14:21:14.000Z</time>
      </trkpt>
      <trkpt lat="45.04996" lon="5.56102">
        <ele>1203.5999755859</ele>
        <time>2012-07-07T14:21:16.000Z</time>
      </trkpt>
      <trkpt lat="45.04988" lon="5.5609">
        <ele>1208.4000244141</ele>
        <time>2012-07-07T14:21:23.000Z</time>
      </trkpt>
      <trkpt lat="45.04986" lon="5.56085">
        <ele>1209.4000244141</ele>
        <time>2012-07-07T14:21:25.000Z</time>
      </trkpt>
      <trkpt lat="45.04978" lon="5.56084">
        <ele>1209.4000244141</ele>
        <time>2012-07-07T14:21:29.000Z</time>
      </trkpt>
      <trkpt lat="45.04974" lon="5.56079">
        <ele>1208</ele>
        <time>2012-07-07T14:21:33.000Z</time>
      </trkpt>
      <trkpt lat="45.04973" lon="5.5607">
        <ele>1209.4000244141</ele>
        <time>2012-07-07T14:21:38.000Z</time>
      </trkpt>
      <trkpt lat="45.04979" lon="5.56057">
        <ele>1204</ele>
        <time>2012-07-07T14:21:44.000Z</time>
      </trkpt>
      <trkpt lat="45.04977" lon="5.56053">
        <ele>1203.1999511719</ele>
        <time>2012-07-07T14:21:48.000Z</time>
      </trkpt>
      <trkpt lat="45.04976" lon="5.56051">
        <ele>1201.5999755859</ele>
        <time>2012-07-07T14:21:50.000Z</time>
      </trkpt>
      <trkpt lat="45.04974" lon="5.56042">
        <ele>1201.5999755859</ele>
        <time>2012-07-07T14:21:55.000Z</time>
      </trkpt>
      <trkpt lat="45.04975" lon="5.56036">
        <ele>1200.1999511719</ele>
        <time>2012-07-07T14:21:58.000Z</time>
      </trkpt>
      <trkpt lat="45.0497" lon="5.56026">
        <ele>1197.4000244141</ele>
        <time>2012-07-07T14:22:03.000Z</time>
      </trkpt>
      <trkpt lat="45.04965" lon="5.56015">
        <ele>1196</ele>
        <time>2012-07-07T14:22:07.000Z</time>
      </trkpt>
      <trkpt lat="45.04962" lon="5.56008">
        <ele>1195.4000244141</ele>
        <time>2012-07-07T14:22:10.000Z</time>
      </trkpt>
      <trkpt lat="45.04962" lon="5.56003">
        <ele>1196</ele>
        <time>2012-07-07T14:22:12.000Z</time>
      </trkpt>
      <trkpt lat="45.04955" lon="5.55991">
        <ele>1194.4000244141</ele>
        <time>2012-07-07T14:22:17.000Z</time>
      </trkpt>
      <trkpt lat="45.04949" lon="5.55984">
        <ele>1191.5999755859</ele>
        <time>2012-07-07T14:22:20.000Z</time>
      </trkpt>
      <trkpt lat="45.04948" lon="5.55972">
        <ele>1188.1999511719</ele>
        <time>2012-07-07T14:22:24.000Z</time>
      </trkpt>
      <trkpt lat="45.04946" lon="5.55963">
        <ele>1186.4000244141</ele>
        <time>2012-07-07T14:22:27.000Z</time>
      </trkpt>
      <trkpt lat="45.04946" lon="5.55957">
        <ele>1187.8000488281</ele>
        <time>2012-07-07T14:22:29.000Z</time>
      </trkpt>
      <trkpt lat="45.04941" lon="5.55939">
        <ele>1187.1999511719</ele>
        <time>2012-07-07T14:22:34.000Z</time>
      </trkpt>
      <trkpt lat="45.04939" lon="5.55928">
        <ele>1185.4000244141</ele>
        <time>2012-07-07T14:22:38.000Z</time>
      </trkpt>
      <trkpt lat="45.04936" lon="5.55926">
        <ele>1185.8000488281</ele>
        <time>2012-07-07T14:22:42.000Z</time>
      </trkpt>
      <trkpt lat="45.04928" lon="5.55916">
        <ele>1184</ele>
        <time>2012-07-07T14:22:46.000Z</time>
      </trkpt>
      <trkpt lat="45.04917" lon="5.55908">
        <ele>1181</ele>
        <time>2012-07-07T14:22:50.000Z</time>
      </trkpt>
      <trkpt lat="45.04909" lon="5.55901">
        <ele>1181.4000244141</ele>
        <time>2012-07-07T14:22:53.000Z</time>
      </trkpt>
      <trkpt lat="45.04904" lon="5.55902">
        <ele>1187.1999511719</ele>
        <time>2012-07-07T14:22:59.000Z</time>
      </trkpt>
      <trkpt lat="45.04892" lon="5.55899">
        <ele>1194</ele>
        <time>2012-07-07T14:23:05.000Z</time>
      </trkpt>
      <trkpt lat="45.04888" lon="5.55898">
        <ele>1192.5999755859</ele>
        <time>2012-07-07T14:23:07.000Z</time>
      </trkpt>
      <trkpt lat="45.04881" lon="5.55885">
        <ele>1187.8000488281</ele>
        <time>2012-07-07T14:23:11.000Z</time>
      </trkpt>
      <trkpt lat="45.04876" lon="5.55878">
        <ele>1184.8000488281</ele>
        <time>2012-07-07T14:23:13.000Z</time>
      </trkpt>
      <trkpt lat="45.04867" lon="5.55866">
        <ele>1179.5999755859</ele>
        <time>2012-07-07T14:23:16.000Z</time>
      </trkpt>
      <trkpt lat="45.04863" lon="5.55854">
        <ele>1175.1999511719</ele>
        <time>2012-07-07T14:23:19.000Z</time>
      </trkpt>
      <trkpt lat="45.04855" lon="5.55845">
        <ele>1173.4000244141</ele>
        <time>2012-07-07T14:23:24.000Z</time>
      </trkpt>
      <trkpt lat="45.04847" lon="5.55843">
        <ele>1171.8000488281</ele>
        <time>2012-07-07T14:23:27.000Z</time>
      </trkpt>
      <trkpt lat="45.04845" lon="5.55844">
        <ele>1171.4000244141</ele>
        <time>2012-07-07T14:23:28.000Z</time>
      </trkpt>
      <trkpt lat="45.0483" lon="5.55843">
        <ele>1173.4000244141</ele>
        <time>2012-07-07T14:23:34.000Z</time>
      </trkpt>
      <trkpt lat="45.04818" lon="5.55844">
        <ele>1174.8000488281</ele>
        <time>2012-07-07T14:23:39.000Z</time>
      </trkpt>
      <trkpt lat="45.04814" lon="5.55845">
        <ele>1175.1999511719</ele>
        <time>2012-07-07T14:23:41.000Z</time>
      </trkpt>
      <trkpt lat="45.04812" lon="5.55851">
        <ele>1175.8000488281</ele>
        <time>2012-07-07T14:23:46.000Z</time>
      </trkpt>
      <trkpt lat="45.04811" lon="5.55855">
        <ele>1177.1999511719</ele>
        <time>2012-07-07T14:23:51.000Z</time>
      </trkpt>
      <trkpt lat="45.04812" lon="5.55859">
        <ele>1178.5999755859</ele>
        <time>2012-07-07T14:23:54.000Z</time>
      </trkpt>
      <trkpt lat="45.04812" lon="5.55871">
        <ele>1178.5999755859</ele>
        <time>2012-07-07T14:23:59.000Z</time>
      </trkpt>
      <trkpt lat="45.04807" lon="5.55871">
        <ele>1180</ele>
        <time>2012-07-07T14:24:02.000Z</time>
      </trkpt>
      <trkpt lat="45.04791" lon="5.55874">
        <ele>1181</ele>
        <time>2012-07-07T14:24:07.000Z</time>
      </trkpt>
      <trkpt lat="45.04782" lon="5.55878">
        <ele>1181.4000244141</ele>
        <time>2012-07-07T14:24:10.000Z</time>
      </trkpt>
      <trkpt lat="45.04776" lon="5.55894">
        <ele>1183.4000244141</ele>
        <time>2012-07-07T14:24:17.000Z</time>
      </trkpt>
      <trkpt lat="45.04773" lon="5.55902">
        <ele>1184.4000244141</ele>
        <time>2012-07-07T14:24:21.000Z</time>
      </trkpt>
      <trkpt lat="45.04772" lon="5.55906">
        <ele>1184.4000244141</ele>
        <time>2012-07-07T14:24:23.000Z</time>
      </trkpt>
      <trkpt lat="45.04769" lon="5.5592">
        <ele>1186.4000244141</ele>
        <time>2012-07-07T14:24:28.000Z</time>
      </trkpt>
      <trkpt lat="45.04767" lon="5.55935">
        <ele>1191.5999755859</ele>
        <time>2012-07-07T14:24:34.000Z</time>
      </trkpt>
      <trkpt lat="45.04763" lon="5.55948">
        <ele>1195.4000244141</ele>
        <time>2012-07-07T14:24:40.000Z</time>
      </trkpt>
      <trkpt lat="45.04757" lon="5.55962">
        <ele>1197.4000244141</ele>
        <time>2012-07-07T14:24:45.000Z</time>
      </trkpt>
      <trkpt lat="45.04754" lon="5.55967">
        <ele>1197.8000488281</ele>
        <time>2012-07-07T14:24:47.000Z</time>
      </trkpt>
      <trkpt lat="45.04745" lon="5.55965">
        <ele>1197.4000244141</ele>
        <time>2012-07-07T14:24:52.000Z</time>
      </trkpt>
      <trkpt lat="45.04745" lon="5.55962">
        <ele>1196.4000244141</ele>
        <time>2012-07-07T14:24:56.000Z</time>
      </trkpt>
      <trkpt lat="45.04749" lon="5.55946">
        <ele>1196.4000244141</ele>
        <time>2012-07-07T14:25:01.000Z</time>
      </trkpt>
      <trkpt lat="45.04749" lon="5.55944">
        <ele>1196</ele>
        <time>2012-07-07T14:25:02.000Z</time>
      </trkpt>
      <trkpt lat="45.0474" lon="5.55937">
        <ele>1192.5999755859</ele>
        <time>2012-07-07T14:25:07.000Z</time>
      </trkpt>
      <trkpt lat="45.04737" lon="5.55929">
        <ele>1191.5999755859</ele>
        <time>2012-07-07T14:25:10.000Z</time>
      </trkpt>
      <trkpt lat="45.04737" lon="5.55917">
        <ele>1190.1999511719</ele>
        <time>2012-07-07T14:25:13.000Z</time>
      </trkpt>
      <trkpt lat="45.04736" lon="5.55907">
        <ele>1187.8000488281</ele>
        <time>2012-07-07T14:25:16.000Z</time>
      </trkpt>
      <trkpt lat="45.04742" lon="5.55899">
        <ele>1186.8000488281</ele>
        <time>2012-07-07T14:25:21.000Z</time>
      </trkpt>
      <trkpt lat="45.04748" lon="5.55888">
        <ele>1185.4000244141</ele>
        <time>2012-07-07T14:25:24.000Z</time>
      </trkpt>
      <trkpt lat="45.04741" lon="5.55876">
        <ele>1182.4000244141</ele>
        <time>2012-07-07T14:25:28.000Z</time>
      </trkpt>
      <trkpt lat="45.04733" lon="5.55859">
        <ele>1178.1999511719</ele>
        <time>2012-07-07T14:25:33.000Z</time>
      </trkpt>
      <trkpt lat="45.04731" lon="5.55849">
        <ele>1176.5999755859</ele>
        <time>2012-07-07T14:25:36.000Z</time>
      </trkpt>
      <trkpt lat="45.04734" lon="5.55842">
        <ele>1172.8000488281</ele>
        <time>2012-07-07T14:25:40.000Z</time>
      </trkpt>
      <trkpt lat="45.04734" lon="5.55839">
        <ele>1169.4000244141</ele>
        <time>2012-07-07T14:25:42.000Z</time>
      </trkpt>
      <trkpt lat="45.04724" lon="5.55837">
        <ele>1166.5999755859</ele>
        <time>2012-07-07T14:25:46.000Z</time>
      </trkpt>
      <trkpt lat="45.04716" lon="5.55851">
        <ele>1164.1999511719</ele>
        <time>2012-07-07T14:25:50.000Z</time>
      </trkpt>
      <trkpt lat="45.04714" lon="5.55858">
        <ele>1162.8000488281</ele>
        <time>2012-07-07T14:25:52.000Z</time>
      </trkpt>
      <trkpt lat="45.04707" lon="5.55874">
        <ele>1162.1999511719</ele>
        <time>2012-07-07T14:25:56.000Z</time>
      </trkpt>
      <trkpt lat="45.04702" lon="5.55894">
        <ele>1164.1999511719</ele>
        <time>2012-07-07T14:26:01.000Z</time>
      </trkpt>
      <trkpt lat="45.04702" lon="5.55904">
        <ele>1165.1999511719</ele>
        <time>2012-07-07T14:26:03.000Z</time>
      </trkpt>
      <trkpt lat="45.04704" lon="5.55914">
        <ele>1167.5999755859</ele>
        <time>2012-07-07T14:26:06.000Z</time>
      </trkpt>
      <trkpt lat="45.04717" lon="5.55903">
        <ele>1175.8000488281</ele>
        <time>2012-07-07T14:26:11.000Z</time>
      </trkpt>
      <trkpt lat="45.04724" lon="5.5589">
        <ele>1177.1999511719</ele>
        <time>2012-07-07T14:26:13.000Z</time>
      </trkpt>
      <trkpt lat="45.04729" lon="5.55851">
        <ele>1179.5999755859</ele>
        <time>2012-07-07T14:26:19.000Z</time>
      </trkpt>
      <trkpt lat="45.04731" lon="5.55845">
        <ele>1180</ele>
        <time>2012-07-07T14:26:20.000Z</time>
      </trkpt>
      <trkpt lat="45.04728" lon="5.55823">
        <ele>1179.5999755859</ele>
        <time>2012-07-07T14:26:24.000Z</time>
      </trkpt>
      <trkpt lat="45.0472" lon="5.55805">
        <ele>1176.1999511719</ele>
        <time>2012-07-07T14:26:29.000Z</time>
      </trkpt>
      <trkpt lat="45.04716" lon="5.55799">
        <ele>1175.8000488281</ele>
        <time>2012-07-07T14:26:34.000Z</time>
      </trkpt>
      <trkpt lat="45.04717" lon="5.55792">
        <ele>1171.8000488281</ele>
        <time>2012-07-07T14:26:44.000Z</time>
      </trkpt>
      <trkpt lat="45.04724" lon="5.55781">
        <ele>1166.1999511719</ele>
        <time>2012-07-07T14:26:50.000Z</time>
      </trkpt>
      <trkpt lat="45.04717" lon="5.55767">
        <ele>1162.8000488281</ele>
        <time>2012-07-07T14:26:53.000Z</time>
      </trkpt>
      <trkpt lat="45.04701" lon="5.5575">
        <ele>1160.4000244141</ele>
        <time>2012-07-07T14:26:57.000Z</time>
      </trkpt>
      <trkpt lat="45.04687" lon="5.5574">
        <ele>1161.4000244141</ele>
        <time>2012-07-07T14:27:01.000Z</time>
      </trkpt>
      <trkpt lat="45.04679" lon="5.55735">
        <ele>1165.1999511719</ele>
        <time>2012-07-07T14:27:04.000Z</time>
      </trkpt>
      <trkpt lat="45.04686" lon="5.55727">
        <ele>1179</ele>
        <time>2012-07-07T14:27:08.000Z</time>
      </trkpt>
      <trkpt lat="45.04691" lon="5.55731">
        <ele>1179</ele>
        <time>2012-07-07T14:27:10.000Z</time>
      </trkpt>
      <trkpt lat="45.04707" lon="5.55758">
        <ele>1171.4000244141</ele>
        <time>2012-07-07T14:27:16.000Z</time>
      </trkpt>
      <trkpt lat="45.0471" lon="5.5577">
        <ele>1168.5999755859</ele>
        <time>2012-07-07T14:27:18.000Z</time>
      </trkpt>
      <trkpt lat="45.04714" lon="5.55782">
        <ele>1167</ele>
        <time>2012-07-07T14:27:20.000Z</time>
      </trkpt>
      <trkpt lat="45.04715" lon="5.55789">
        <ele>1164.5999755859</ele>
        <time>2012-07-07T14:27:23.000Z</time>
      </trkpt>
      <trkpt lat="45.04706" lon="5.55772">
        <ele>1161.8000488281</ele>
        <time>2012-07-07T14:27:27.000Z</time>
      </trkpt>
      <trkpt lat="45.04689" lon="5.55749">
        <ele>1164.1999511719</ele>
        <time>2012-07-07T14:27:33.000Z</time>
      </trkpt>
      <trkpt lat="45.04682" lon="5.55742">
        <ele>1165.5999755859</ele>
        <time>2012-07-07T14:27:36.000Z</time>
      </trkpt>
      <trkpt lat="45.04663" lon="5.55749">
        <ele>1165.1999511719</ele>
        <time>2012-07-07T14:27:41.000Z</time>
      </trkpt>
      <trkpt lat="45.04657" lon="5.55766">
        <ele>1163.1999511719</ele>
        <time>2012-07-07T14:27:45.000Z</time>
      </trkpt>
      <trkpt lat="45.04657" lon="5.5577">
        <ele>1162.8000488281</ele>
        <time>2012-07-07T14:27:46.000Z</time>
      </trkpt>
      <trkpt lat="45.04659" lon="5.55788">
        <ele>1162.8000488281</ele>
        <time>2012-07-07T14:27:50.000Z</time>
      </trkpt>
      <trkpt lat="45.04658" lon="5.558">
        <ele>1161.8000488281</ele>
        <time>2012-07-07T14:27:55.000Z</time>
      </trkpt>
      <trkpt lat="45.04659" lon="5.558">
        <ele>1161.4000244141</ele>
        <time>2012-07-07T14:27:57.000Z</time>
      </trkpt>
      <trkpt lat="45.0466" lon="5.55805">
        <ele>1161.8000488281</ele>
        <time>2012-07-07T14:28:03.000Z</time>
      </trkpt>
      <trkpt lat="45.04665" lon="5.55807">
        <ele>1163.1999511719</ele>
        <time>2012-07-07T14:28:09.000Z</time>
      </trkpt>
      <trkpt lat="45.04672" lon="5.55814">
        <ele>1166.1999511719</ele>
        <time>2012-07-07T14:28:13.000Z</time>
      </trkpt>
      <trkpt lat="45.04675" lon="5.55814">
        <ele>1168.5999755859</ele>
        <time>2012-07-07T14:28:17.000Z</time>
      </trkpt>
      <trkpt lat="45.04674" lon="5.55819">
        <ele>1171.4000244141</ele>
        <time>2012-07-07T14:28:24.000Z</time>
      </trkpt>
      <trkpt lat="45.04674" lon="5.5583">
        <ele>1171.8000488281</ele>
        <time>2012-07-07T14:28:28.000Z</time>
      </trkpt>
      <trkpt lat="45.04668" lon="5.55859">
        <ele>1172.8000488281</ele>
        <time>2012-07-07T14:28:34.000Z</time>
      </trkpt>
      <trkpt lat="45.04662" lon="5.55871">
        <ele>1170.4000244141</ele>
        <time>2012-07-07T14:28:38.000Z</time>
      </trkpt>
      <trkpt lat="45.04655" lon="5.55869">
        <ele>1170</ele>
        <time>2012-07-07T14:28:42.000Z</time>
      </trkpt>
      <trkpt lat="45.04641" lon="5.55874">
        <ele>1170</ele>
        <time>2012-07-07T14:28:46.000Z</time>
      </trkpt>
      <trkpt lat="45.04625" lon="5.5589">
        <ele>1169</ele>
        <time>2012-07-07T14:28:51.000Z</time>
      </trkpt>
      <trkpt lat="45.04615" lon="5.55908">
        <ele>1168.5999755859</ele>
        <time>2012-07-07T14:28:55.000Z</time>
      </trkpt>
      <trkpt lat="45.04612" lon="5.55912">
        <ele>1168</ele>
        <time>2012-07-07T14:28:56.000Z</time>
      </trkpt>
      <trkpt lat="45.04599" lon="5.55916">
        <ele>1165.1999511719</ele>
        <time>2012-07-07T14:29:01.000Z</time>
      </trkpt>
      <trkpt lat="45.04593" lon="5.55913">
        <ele>1162.8000488281</ele>
        <time>2012-07-07T14:29:03.000Z</time>
      </trkpt>
      <trkpt lat="45.04576" lon="5.55916">
        <ele>1160.4000244141</ele>
        <time>2012-07-07T14:29:07.000Z</time>
      </trkpt>
      <trkpt lat="45.04572" lon="5.55916">
        <ele>1159.4000244141</ele>
        <time>2012-07-07T14:29:08.000Z</time>
      </trkpt>
      <trkpt lat="45.04559" lon="5.55933">
        <ele>1159</ele>
        <time>2012-07-07T14:29:12.000Z</time>
      </trkpt>
      <trkpt lat="45.0455" lon="5.55949">
        <ele>1157.4000244141</ele>
        <time>2012-07-07T14:29:15.000Z</time>
      </trkpt>
      <trkpt lat="45.04537" lon="5.55961">
        <ele>1156.5999755859</ele>
        <time>2012-07-07T14:29:19.000Z</time>
      </trkpt>
      <trkpt lat="45.04534" lon="5.55963">
        <ele>1157</ele>
        <time>2012-07-07T14:29:20.000Z</time>
      </trkpt>
      <trkpt lat="45.04529" lon="5.55968">
        <ele>1157.4000244141</ele>
        <time>2012-07-07T14:29:22.000Z</time>
      </trkpt>
      <trkpt lat="45.0451" lon="5.55985">
        <ele>1159.4000244141</ele>
        <time>2012-07-07T14:29:28.000Z</time>
      </trkpt>
      <trkpt lat="45.045" lon="5.55991">
        <ele>1161.4000244141</ele>
        <time>2012-07-07T14:29:31.000Z</time>
      </trkpt>
      <trkpt lat="45.04489" lon="5.55996">
        <ele>1162.1999511719</ele>
        <time>2012-07-07T14:29:35.000Z</time>
      </trkpt>
      <trkpt lat="45.04481" lon="5.55998">
        <ele>1162.8000488281</ele>
        <time>2012-07-07T14:29:39.000Z</time>
      </trkpt>
      <trkpt lat="45.04479" lon="5.56">
        <ele>1162.8000488281</ele>
        <time>2012-07-07T14:29:42.000Z</time>
      </trkpt>
      <trkpt lat="45.04475" lon="5.5601">
        <ele>1161.8000488281</ele>
        <time>2012-07-07T14:29:47.000Z</time>
      </trkpt>
      <trkpt lat="45.04474" lon="5.56007">
        <ele>1161.4000244141</ele>
        <time>2012-07-07T14:29:49.000Z</time>
      </trkpt>
      <trkpt lat="45.04488" lon="5.56011">
        <ele>1161.8000488281</ele>
        <time>2012-07-07T14:29:55.000Z</time>
      </trkpt>
      <trkpt lat="45.04509" lon="5.56022">
        <ele>1162.1999511719</ele>
        <time>2012-07-07T14:30:00.000Z</time>
      </trkpt>
      <trkpt lat="45.04519" lon="5.56033">
        <ele>1163.1999511719</ele>
        <time>2012-07-07T14:30:03.000Z</time>
      </trkpt>
      <trkpt lat="45.04529" lon="5.5604">
        <ele>1164.5999755859</ele>
        <time>2012-07-07T14:30:07.000Z</time>
      </trkpt>
      <trkpt lat="45.04533" lon="5.56041">
        <ele>1165.5999755859</ele>
        <time>2012-07-07T14:30:08.000Z</time>
      </trkpt>
      <trkpt lat="45.04546" lon="5.56045">
        <ele>1168</ele>
        <time>2012-07-07T14:30:12.000Z</time>
      </trkpt>
      <trkpt lat="45.04559" lon="5.56043">
        <ele>1172.8000488281</ele>
        <time>2012-07-07T14:30:16.000Z</time>
      </trkpt>
      <trkpt lat="45.04576" lon="5.56033">
        <ele>1179.5999755859</ele>
        <time>2012-07-07T14:30:21.000Z</time>
      </trkpt>
      <trkpt lat="45.04584" lon="5.56028">
        <ele>1182</ele>
        <time>2012-07-07T14:30:26.000Z</time>
      </trkpt>
      <trkpt lat="45.04586" lon="5.56028">
        <ele>1182.4000244141</ele>
        <time>2012-07-07T14:30:27.000Z</time>
      </trkpt>
      <trkpt lat="45.04588" lon="5.5603">
        <ele>1182.4000244141</ele>
        <time>2012-07-07T14:30:30.000Z</time>
      </trkpt>
      <trkpt lat="45.0459" lon="5.56039">
        <ele>1184.4000244141</ele>
        <time>2012-07-07T14:30:35.000Z</time>
      </trkpt>
      <trkpt lat="45.04594" lon="5.56041">
        <ele>1191.1999511719</ele>
        <time>2012-07-07T14:30:40.000Z</time>
      </trkpt>
      <trkpt lat="45.04597" lon="5.56042">
        <ele>1193</ele>
        <time>2012-07-07T14:30:42.000Z</time>
      </trkpt>
      <trkpt lat="45.046" lon="5.56044">
        <ele>1196.4000244141</ele>
        <time>2012-07-07T14:30:45.000Z</time>
      </trkpt>
      <trkpt lat="45.04598" lon="5.56056">
        <ele>1211.1999511719</ele>
        <time>2012-07-07T14:30:50.000Z</time>
      </trkpt>
      <trkpt lat="45.04591" lon="5.56068">
        <ele>1212.1999511719</ele>
        <time>2012-07-07T14:30:55.000Z</time>
      </trkpt>
      <trkpt lat="45.04587" lon="5.5609">
        <ele>1206</ele>
        <time>2012-07-07T14:30:59.000Z</time>
      </trkpt>
      <trkpt lat="45.04581" lon="5.56107">
        <ele>1198.8000488281</ele>
        <time>2012-07-07T14:31:04.000Z</time>
      </trkpt>
      <trkpt lat="45.0458" lon="5.56123">
        <ele>1191.5999755859</ele>
        <time>2012-07-07T14:31:08.000Z</time>
      </trkpt>
      <trkpt lat="45.04581" lon="5.56128">
        <ele>1190.1999511719</ele>
        <time>2012-07-07T14:31:11.000Z</time>
      </trkpt>
      <trkpt lat="45.04581" lon="5.56131">
        <ele>1190.1999511719</ele>
        <time>2012-07-07T14:31:13.000Z</time>
      </trkpt>
      <trkpt lat="45.04584" lon="5.5613">
        <ele>1189.1999511719</ele>
        <time>2012-07-07T14:31:16.000Z</time>
      </trkpt>
      <trkpt lat="45.04591" lon="5.56124">
        <ele>1190.1999511719</ele>
        <time>2012-07-07T14:31:20.000Z</time>
      </trkpt>
      <trkpt lat="45.04602" lon="5.56111">
        <ele>1189.5999755859</ele>
        <time>2012-07-07T14:31:25.000Z</time>
      </trkpt>
      <trkpt lat="45.04613" lon="5.56101">
        <ele>1189.1999511719</ele>
        <time>2012-07-07T14:31:30.000Z</time>
      </trkpt>
      <trkpt lat="45.04625" lon="5.56089">
        <ele>1188.8000488281</ele>
        <time>2012-07-07T14:31:35.000Z</time>
      </trkpt>
      <trkpt lat="45.04631" lon="5.56092">
        <ele>1188.1999511719</ele>
        <time>2012-07-07T14:31:39.000Z</time>
      </trkpt>
      <trkpt lat="45.04631" lon="5.56093">
        <ele>1187.1999511719</ele>
        <time>2012-07-07T14:31:40.000Z</time>
      </trkpt>
      <trkpt lat="45.04624" lon="5.56104">
        <ele>1188.1999511719</ele>
        <time>2012-07-07T14:31:45.000Z</time>
      </trkpt>
      <trkpt lat="45.0461" lon="5.56118">
        <ele>1189.1999511719</ele>
        <time>2012-07-07T14:31:51.000Z</time>
      </trkpt>
      <trkpt lat="45.046" lon="5.5613">
        <ele>1192.5999755859</ele>
        <time>2012-07-07T14:31:55.000Z</time>
      </trkpt>
      <trkpt lat="45.04592" lon="5.56145">
        <ele>1193.5999755859</ele>
        <time>2012-07-07T14:31:59.000Z</time>
      </trkpt>
      <trkpt lat="45.04584" lon="5.5616">
        <ele>1194</ele>
        <time>2012-07-07T14:32:03.000Z</time>
      </trkpt>
      <trkpt lat="45.04578" lon="5.56171">
        <ele>1194.4000244141</ele>
        <time>2012-07-07T14:32:07.000Z</time>
      </trkpt>
      <trkpt lat="45.04575" lon="5.56179">
        <ele>1195</ele>
        <time>2012-07-07T14:32:09.000Z</time>
      </trkpt>
      <trkpt lat="45.04559" lon="5.56187">
        <ele>1196.4000244141</ele>
        <time>2012-07-07T14:32:14.000Z</time>
      </trkpt>
      <trkpt lat="45.04552" lon="5.56191">
        <ele>1196.4000244141</ele>
        <time>2012-07-07T14:32:18.000Z</time>
      </trkpt>
      <trkpt lat="45.04549" lon="5.56191">
        <ele>1195</ele>
        <time>2012-07-07T14:32:23.000Z</time>
      </trkpt>
      <trkpt lat="45.04548" lon="5.5619">
        <ele>1196.8000488281</ele>
        <time>2012-07-07T14:32:26.000Z</time>
      </trkpt>
    </trkseg>
  </trk>
</gpx>